Time;durP1;ratioP1;P1;durP2;ratioP2;P2;SDS_P1;SDS_P2;PMS_P1;PMS_P2;Temp;Humidity;BMP_temperature;BMP_pressure;BME280_temperature;BME280_humidity;BME280_pressure;Samples;Min_cycle;Max_cycle;Signal;HPM_P1;HPM_P2
2022/09/28 00:01:37;;;;;;;;;;;;;;;21.80;50.21;99518.61;104490;1309;62121;-85
2022/09/28 00:04:02;;;;;;;;;;;;;;;21.80;50.10;99513.44;104434;1310;62048;-85
2022/09/28 00:06:29;;;;;;;;;;;;;;;21.79;50.19;99514.51;104474;1310;72862;-86
2022/09/28 00:08:55;;;;;;;;;;;;;;;21.79;50.08;99515.41;104486;1310;62080;-85
2022/09/28 00:11:21;;;;;;;;;;;;;;;21.79;50.18;99515.84;104490;1309;62096;-86
2022/09/28 00:13:50;;;;;;;;;;;;;;;21.79;50.18;99522.45;104417;1310;62105;-83
2022/09/28 00:16:18;;;;;;;;;;;;;;;21.79;49.99;99521.92;104482;1309;72120;-84
2022/09/28 00:18:44;;;;;;;;;;;;;;;21.79;50.09;99518.86;104428;1310;76395;-87
2022/09/28 00:21:11;;;;;;;;;;;;;;;21.79;50.04;99516.92;104458;1311;62078;-88
2022/09/28 00:26:21;;;;;;;;;;;;;;;21.78;49.97;99511.40;104477;1310;72807;-85
2022/09/28 00:28:49;;;;;;;;;;;;;;;21.78;50.10;99512.32;104470;1311;62074;-84
2022/09/28 00:31:16;;;;;;;;;;;;;;;21.78;49.94;99515.02;104503;1309;62071;-85
2022/09/28 00:33:42;;;;;;;;;;;;;;;21.78;50.01;99510.20;104461;1311;62203;-84
2022/09/28 00:36:11;;;;;;;;;;;;;;;21.78;49.94;99511.44;104463;1310;62102;-84
2022/09/28 00:38:39;;;;;;;;;;;;;;;21.78;50.06;99510.36;104481;1311;75477;-86
2022/09/28 00:41:05;;;;;;;;;;;;;;;21.77;49.84;99512.77;104476;1310;62469;-86
2022/09/28 00:43:31;;;;;;;;;;;;;;;21.77;49.88;99510.76;104508;1309;62104;-85
2022/09/28 00:46:05;;;;;;;;;;;;;;;21.78;49.85;99509.66;104497;1309;62366;-86
2022/09/28 00:48:32;;;;;;;;;;;;;;;21.78;49.95;99511.83;104476;1310;74512;-85
2022/09/28 00:50:58;;;;;;;;;;;;;;;21.78;49.96;99510.73;104427;1309;61941;-85
2022/09/28 00:53:25;;;;;;;;;;;;;;;21.78;49.78;99509.67;104466;1311;62076;-88
2022/09/28 00:55:51;;;;;;;;;;;;;;;21.77;49.81;99508.66;104458;1310;62125;-86
2022/09/28 00:58:19;;;;;;;;;;;;;;;21.77;49.80;99511.33;104389;1309;62000;-87
2022/09/28 01:00:45;;;;;;;;;;;;;;;21.77;49.87;99507.55;104504;1309;62028;-85
2022/09/28 01:03:10;;;;;;;;;;;;;;;21.76;49.71;99506.55;104424;1310;62177;-86
2022/09/28 01:05:36;;;;;;;;;;;;;;;21.76;49.80;99506.00;104488;1310;62118;-86
2022/09/28 01:08:02;;;;;;;;;;;;;;;21.76;49.75;99508.35;104488;1309;62107;-84
2022/09/28 01:10:29;;;;;;;;;;;;;;;21.76;49.80;99505.30;104497;1309;62072;-84
2022/09/28 01:12:54;;;;;;;;;;;;;;;21.76;49.70;99505.16;104456;1309;62148;-86
2022/09/28 01:15:20;;;;;;;;;;;;;;;21.76;49.52;99504.25;104450;1310;62078;-85
2022/09/28 01:17:51;;;;;;;;;;;;;;;21.76;49.67;99511.61;104459;1311;72857;-84
2022/09/28 01:20:27;;;;;;;;;;;;;;;21.76;49.60;99510.86;104473;1309;75504;-84
2022/09/28 01:22:59;;;;;;;;;;;;;;;21.76;49.60;99510.86;104494;1309;62117;-85
2022/09/28 01:25:43;;;;;;;;;;;;;;;21.76;49.63;99508.95;104420;1309;62004;-86
2022/09/28 01:28:12;;;;;;;;;;;;;;;21.76;49.73;99505.66;104475;1309;73158;-84
2022/09/28 01:30:54;;;;;;;;;;;;;;;21.76;49.58;99503.75;104527;1309;62191;-83
2022/09/28 01:33:21;;;;;;;;;;;;;;;21.75;49.47;99507.16;104489;1309;61960;-85
2022/09/28 01:35:49;;;;;;;;;;;;;;;21.75;49.58;99504.52;104491;1309;61974;-85
2022/09/28 01:38:17;;;;;;;;;;;;;;;21.75;49.53;99509.68;104469;1310;72870;-87
2022/09/28 01:40:42;;;;;;;;;;;;;;;21.75;49.56;99510.59;104477;1310;76056;-87
2022/09/28 01:43:09;;;;;;;;;;;;;;;21.75;49.58;99512.56;104458;1310;62101;-86
2022/09/28 01:45:37;;;;;;;;;;;;;;;21.75;49.44;99511.50;104404;1310;62150;-87
2022/09/28 01:48:04;;;;;;;;;;;;;;;21.75;49.41;99516.67;104459;1309;73896;-85
2022/09/28 01:50:30;;;;;;;;;;;;;;;21.75;49.60;99519.05;104481;1309;76574;-85
2022/09/28 01:53:00;;;;;;;;;;;;;;;21.75;49.54;99519.95;104459;1311;62068;-84
2022/09/28 01:55:32;;;;;;;;;;;;;;;21.74;49.42;99525.32;104522;1309;62000;-84
2022/09/28 01:58:20;;;;;;;;;;;;;;;21.75;49.37;99527.67;104466;1309;74060;-86
2022/09/28 02:00:47;;;;;;;;;;;;;;;21.74;49.36;99530.52;104476;1309;76772;-84
2022/09/28 02:03:23;;;;;;;;;;;;;;;21.75;49.29;99535.35;104585;1309;62002;-87
2022/09/28 02:05:57;;;;;;;;;;;;;;;21.75;49.38;99533.73;104679;1311;62142;-85
2022/09/28 02:08:25;;;;;;;;;;;;;;;21.75;49.35;99529.42;104487;1311;72665;-84
2022/09/28 02:10:53;;;;;;;;;;;;;;;21.74;49.39;99530.89;104440;1310;76689;-84
2022/09/28 02:13:19;;;;;;;;;;;;;;;21.75;49.37;99533.55;104453;1310;61983;-84
2022/09/28 02:15:57;;;;;;;;;;;;;;;21.75;49.27;99542.48;104492;1311;62015;-85
2022/09/28 02:18:23;;;;;;;;;;;;;;;21.75;49.28;99541.95;104472;1311;73775;-84
2022/09/28 02:20:56;;;;;;;;;;;;;;;21.74;49.26;99544.70;104398;1310;62214;-81
2022/09/28 02:23:22;;;;;;;;;;;;;;;21.75;49.42;99544.84;104436;1311;61914;-84
2022/09/28 02:25:52;;;;;;;;;;;;;;;21.74;49.29;99546.73;104456;1311;62054;-81
2022/09/28 02:28:17;;;;;;;;;;;;;;;21.74;49.15;99550.79;104492;1310;72260;-86
2022/09/28 02:30:43;;;;;;;;;;;;;;;21.74;49.13;99550.26;104448;1310;62073;-83
2022/09/28 02:33:18;;;;;;;;;;;;;;;21.74;49.05;99552.43;104480;1311;62087;-87
2022/09/28 02:35:44;;;;;;;;;;;;;;;21.74;49.10;99550.31;104485;1309;62060;-84
2022/09/28 02:38:10;;;;;;;;;;;;;;;21.73;49.11;99547.99;104459;1309;62141;-91
2022/09/28 02:40:36;;;;;;;;;;;;;;;21.74;49.13;99545.67;104409;1310;62230;-83
2022/09/28 02:43:02;;;;;;;;;;;;;;;21.73;48.99;99541.21;104491;1309;62144;-86
2022/09/28 02:45:31;;;;;;;;;;;;;;;21.73;49.13;99549.48;104504;1310;60530;-88
2022/09/28 02:48:07;;;;;;;;;;;;;;;21.73;49.16;99553.45;104432;1311;72698;-84
2022/09/28 02:50:36;;;;;;;;;;;;;;;21.72;49.12;99550.44;104456;1310;75592;-86
2022/09/28 02:53:28;;;;;;;;;;;;;;;21.72;48.93;99552.38;104452;1312;62109;-85
2022/09/28 02:55:58;;;;;;;;;;;;;;;21.72;49.11;99548.31;104424;1309;61967;-87
2022/09/28 02:58:42;;;;;;;;;;;;;;;21.72;48.92;99545.99;104500;1309;72698;-84
2022/09/28 03:01:27;;;;;;;;;;;;;;;21.72;48.93;99547.04;104499;1309;76848;-85
2022/09/28 03:04:11;;;;;;;;;;;;;;;21.72;49.04;99546.90;104502;1310;62073;-85
2022/09/28 03:06:43;;;;;;;;;;;;;;;21.71;48.99;99540.33;104514;1309;62050;-86
2022/09/28 03:09:29;;;;;;;;;;;;;;;21.72;48.83;99545.45;104457;1310;72765;-84
2022/09/28 03:11:58;;;;;;;;;;;;;;;21.72;48.91;99551.04;104477;1309;76756;-86
2022/09/28 03:14:24;;;;;;;;;;;;;;;21.72;48.97;99556.40;104492;1310;61841;-84
2022/09/28 03:16:49;;;;;;;;;;;;;;;21.71;48.76;99559.48;104530;1309;62114;-84
2022/09/28 03:19:16;;;;;;;;;;;;;;;21.72;48.73;99561.08;104407;1309;62080;-84
2022/09/28 03:21:41;;;;;;;;;;;;;;;21.72;48.80;99564.09;104454;1310;62148;-84
2022/09/28 03:24:09;;;;;;;;;;;;;;;21.72;48.79;99572.35;104488;1309;62252;-84
2022/09/28 03:26:37;;;;;;;;;;;;;;;21.71;48.58;99571.30;104559;1309;62089;-84
2022/09/28 03:29:02;;;;;;;;;;;;;;;21.71;48.75;99573.62;104622;1309;62188;-84
2022/09/28 03:31:28;;;;;;;;;;;;;;;21.71;48.62;99576.84;104536;1309;62107;-85
2022/09/28 03:33:53;;;;;;;;;;;;;;;21.71;48.74;99582.79;104554;1309;62085;-87
2022/09/28 03:36:19;;;;;;;;;;;;;;;21.71;48.65;99581.02;104551;1309;60186;-84
2022/09/28 03:38:44;;;;;;;;;;;;;;;21.71;48.64;99591.23;104510;1309;62105;-86
2022/09/28 03:41:10;;;;;;;;;;;;;;;21.70;48.68;99584.64;104521;1309;62111;-85
2022/09/28 03:43:35;;;;;;;;;;;;;;;21.71;48.62;99589.65;104517;1309;62069;-85
2022/09/28 03:46:01;;;;;;;;;;;;;;;21.70;48.58;99592.36;104488;1309;62116;-85
2022/09/28 03:48:28;;;;;;;;;;;;;;;21.70;48.52;99590.58;104496;1309;62763;-84
2022/09/28 03:50:54;;;;;;;;;;;;;;;21.70;48.52;99591.85;104632;1308;62105;-85
2022/09/28 03:53:20;;;;;;;;;;;;;;;21.70;48.51;99594.00;104528;1308;62063;-86
2022/09/28 03:55:46;;;;;;;;;;;;;;;21.69;48.41;99593.15;104628;1308;62033;-85
2022/09/28 03:58:11;;;;;;;;;;;;;;;21.69;48.43;99599.97;104534;1309;62072;-84
2022/09/28 04:00:38;;;;;;;;;;;;;;;21.69;48.49;99601.38;104463;1309;62079;-81
2022/09/28 04:03:04;;;;;;;;;;;;;;;21.69;48.44;99598.42;104459;1308;62069;-85
2022/09/28 04:05:29;;;;;;;;;;;;;;;21.64;48.39;99599.95;104489;1309;60138;-83
2022/09/28 04:07:56;;;;;;;;;;;;;;;21.60;48.41;99601.50;104586;1309;62204;-85
2022/09/28 04:10:23;;;;;;;;;;;;;;;21.58;48.45;99607.61;104532;1309;61954;-85
2022/09/28 04:12:49;;;;;;;;;;;;;;;21.56;48.44;99609.95;104521;1308;61971;-86
2022/09/28 04:15:15;;;;;;;;;;;;;;;21.54;48.46;99606.20;104500;1309;72610;-83
2022/09/28 04:17:41;;;;;;;;;;;;;;;21.50;48.48;99603.48;104589;1308;64610;-83
2022/09/28 04:20:08;;;;;;;;;;;;;;;21.48;48.39;99601.55;104530;1309;62092;-84
2022/09/28 04:22:36;;;;;;;;;;;;;;;21.46;48.44;99601.52;104479;1309;62220;-84
2022/09/28 04:25:02;;;;;;;;;;;;;;;21.44;48.43;99604.75;104527;1309;73715;-83
2022/09/28 04:30:12;;;;;;;;;;;;;;;21.41;48.29;99601.64;104478;1308;60257;-84
2022/09/28 04:32:38;;;;;;;;;;;;;;;21.39;48.40;99605.00;104445;1310;62123;-85
2022/09/28 04:35:04;;;;;;;;;;;;;;;21.37;48.35;99608.11;104679;1308;62125;-85
2022/09/28 04:37:30;;;;;;;;;;;;;;;21.36;48.34;99608.72;104384;1309;62260;-84
2022/09/28 04:39:55;;;;;;;;;;;;;;;21.35;48.15;99610.96;104379;1309;61934;-84
2022/09/28 04:42:22;;;;;;;;;;;;;;;21.33;48.22;99607.88;104523;1308;62232;-82
2022/09/28 04:44:48;;;;;;;;;;;;;;;21.33;48.25;99610.62;104331;1308;62215;-83
2022/09/28 04:47:13;;;;;;;;;;;;;;;21.32;48.30;99609.41;104075;1309;60481;-82
2022/09/28 04:49:39;;;;;;;;;;;;;;;21.32;48.27;99611.98;104260;1308;62285;-81
2022/09/28 04:52:04;;;;;;;;;;;;;;;21.30;48.32;99611.94;104370;1308;62225;-83
2022/09/28 04:54:30;;;;;;;;;;;;;;;21.28;48.44;99612.99;104294;1308;62179;-84
2022/09/28 04:56:56;;;;;;;;;;;;;;;21.25;48.35;99614.52;104302;1309;63493;-84
2022/09/28 04:59:21;;;;;;;;;;;;;;;21.22;48.21;99617.11;105189;1308;60474;-84
2022/09/28 05:01:48;;;;;;;;;;;;;;;21.19;48.42;99627.41;104618;1308;62082;-83
2022/09/28 05:04:15;;;;;;;;;;;;;;;21.17;48.30;99639.95;104236;1307;60488;-84
2022/09/28 05:06:40;;;;;;;;;;;;;;;21.16;48.42;99645.23;104230;1309;60727;-84
2022/09/28 05:09:06;;;;;;;;;;;;;;;21.15;48.43;99650.91;104405;1307;61787;-83
2022/09/28 05:11:31;;;;;;;;;;;;;;;21.13;48.40;99652.32;104239;1308;62156;-84
2022/09/28 05:13:57;;;;;;;;;;;;;;;21.09;48.16;99655.52;104281;1308;62053;-84
2022/09/28 05:16:24;;;;;;;;;;;;;;;21.06;48.24;99659.94;104299;1309;60244;-84
2022/09/28 05:18:54;;;;;;;;;;;;;;;21.06;48.24;99658.63;104333;1308;62061;-84
2022/09/28 05:21:19;;;;;;;;;;;;;;;21.04;48.19;99664.69;104279;1309;74875;-84
2022/09/28 05:23:45;;;;;;;;;;;;;;;21.05;48.24;99662.10;104286;1309;62261;-85
2022/09/28 05:26:10;;;;;;;;;;;;;;;21.06;48.17;99664.66;104307;1309;62280;-84
2022/09/28 05:28:36;;;;;;;;;;;;;;;21.08;48.08;99661.85;104293;1309;60588;-83
2022/09/28 05:31:03;;;;;;;;;;;;;;;21.09;48.08;99661.55;104363;1308;61482;-84
2022/09/28 05:33:29;;;;;;;;;;;;;;;21.10;48.09;99659.30;104505;1307;73756;-83
2022/09/28 05:35:55;;;;;;;;;;;;;;;21.12;47.74;99658.64;104228;1308;62219;-84
2022/09/28 05:38:21;;;;;;;;;;;;;;;21.13;47.84;99667.70;104248;1309;62129;-83
2022/09/28 05:40:46;;;;;;;;;;;;;;;21.14;47.72;99665.11;104239;1308;62298;-82
2022/09/28 05:43:11;;;;;;;;;;;;;;;21.14;47.90;99663.85;104214;1309;62119;-83
2022/09/28 05:45:37;;;;;;;;;;;;;;;21.15;47.95;99660.00;104408;1309;61944;-84
2022/09/28 05:48:02;;;;;;;;;;;;;;;21.13;47.80;99656.73;104225;1308;62129;-83
2022/09/28 05:50:29;;;;;;;;;;;;;;;21.09;47.74;99658.21;104427;1309;62186;-84
2022/09/28 05:52:59;;;;;;;;;;;;;;;21.08;47.76;99655.95;104266;1309;62209;-83
2022/09/28 05:55:25;;;;;;;;;;;;;;;21.06;47.87;99659.17;104203;1308;72692;-84
2022/09/28 05:57:59;;;;;;;;;;;;;;;21.03;47.95;99663.02;104242;1310;62093;-84
2022/09/28 06:00:26;;;;;;;;;;;;;;;21.02;47.99;99665.80;104260;1309;61943;-85
2022/09/28 06:02:56;;;;;;;;;;;;;;;21.01;48.06;99670.17;104332;1309;61314;-83
2022/09/28 06:05:23;;;;;;;;;;;;;;;21.01;48.02;99669.96;104171;1308;73557;-83
2022/09/28 06:07:48;;;;;;;;;;;;;;;20.98;48.17;99668.83;104732;1309;59926;-84
2022/09/28 06:10:14;;;;;;;;;;;;;;;20.96;48.21;99672.75;104438;1307;62536;-83
2022/09/28 06:12:40;;;;;;;;;;;;;;;20.96;48.23;99672.00;104213;1309;62256;-84
2022/09/28 06:15:06;;;;;;;;;;;;;;;20.98;48.08;99674.54;104422;1306;62064;-86
2022/09/28 06:17:31;;;;;;;;;;;;;;;20.97;48.12;99672.66;104319;1309;62110;-83
2022/09/28 06:19:57;;;;;;;;;;;;;;;20.98;48.26;99674.04;104291;1308;62064;-83
2022/09/28 06:22:23;;;;;;;;;;;;;;;20.98;48.25;99675.29;104297;1309;62107;-84
2022/09/28 06:24:49;;;;;;;;;;;;;;;20.99;48.22;99674.83;104237;1310;62666;-83
2022/09/28 06:27:14;;;;;;;;;;;;;;;21.00;48.25;99674.52;104178;1310;62092;-84
2022/09/28 06:29:39;;;;;;;;;;;;;;;21.02;48.26;99675.05;104189;1311;62113;-83
2022/09/28 06:32:06;;;;;;;;;;;;;;;21.04;48.30;99674.52;104253;1311;60544;-84
2022/09/28 06:34:32;;;;;;;;;;;;;;;21.04;48.24;99675.77;104266;1311;62169;-83
2022/09/28 06:36:57;;;;;;;;;;;;;;;21.04;48.43;99679.41;104097;1312;62075;-83
2022/09/28 06:39:23;;;;;;;;;;;;;;;21.04;48.22;99685.84;104239;1311;62115;-84
2022/09/28 06:41:48;;;;;;;;;;;;;;;21.05;48.32;99686.09;104212;1309;62176;-82
2022/09/28 06:44:14;;;;;;;;;;;;;;;21.07;48.44;99689.64;104301;1311;61725;-82
2022/09/28 06:46:39;;;;;;;;;;;;;;;21.10;48.44;99694.80;104234;1311;62107;-83
2022/09/28 06:49:08;;;;;;;;;;;;;;;21.11;48.56;99698.61;104207;1310;62089;-83
2022/09/28 06:51:36;;;;;;;;;;;;;;;21.12;48.42;99701.95;104267;1309;73658;-83
2022/09/28 06:54:01;;;;;;;;;;;;;;;21.06;48.54;99705.81;104163;1310;75802;-83
2022/09/28 06:56:27;;;;;;;;;;;;;;;21.04;48.50;99706.20;104315;1309;62154;-85
2022/09/28 06:58:53;;;;;;;;;;;;;;;21.07;48.77;99708.77;104262;1311;62084;-83
2022/09/28 07:01:19;;;;;;;;;;;;;;;21.11;48.73;99705.81;104306;1311;61030;-82
2022/09/28 07:03:44;;;;;;;;;;;;;;;21.13;48.73;99704.69;104320;1311;62164;-84
2022/09/28 07:06:13;;;;;;;;;;;;;;;21.14;48.80;99703.05;104464;1311;62149;-84
2022/09/28 07:08:40;;;;;;;;;;;;;;;21.11;49.07;99700.94;104235;1309;61140;-82
2022/09/28 07:11:06;;;;;;;;;;;;;;;21.12;49.06;99701.44;104224;1309;60837;-84
2022/09/28 07:13:32;;;;;;;;;;;;;;;21.10;49.10;99702.63;103898;1309;72841;-83
2022/09/28 07:16:01;;;;;;;;;;;;;;;21.13;49.35;99705.98;104272;1310;60239;-82
2022/09/28 07:18:28;;;;;;;;;;;;;;;21.15;49.12;99710.60;104230;1311;60079;-82
2022/09/28 07:20:55;;;;;;;;;;;;;;;21.18;49.30;99713.92;104264;1311;61552;-82
2022/09/28 07:23:21;;;;;;;;;;;;;;;21.20;49.27;99716.44;104192;1310;73755;-84
2022/09/28 07:25:48;;;;;;;;;;;;;;;21.23;49.30;99717.77;104282;1310;60551;-82
2022/09/28 07:28:14;;;;;;;;;;;;;;;21.26;49.24;99720.38;104083;1311;62171;-83
2022/09/28 07:30:39;;;;;;;;;;;;;;;21.29;49.26;99715.54;104178;1309;62017;-84
2022/09/28 07:33:06;;;;;;;;;;;;;;;21.30;49.31;99717.40;104330;1310;62062;-83
2022/09/28 07:35:33;;;;;;;;;;;;;;;21.32;49.11;99714.18;104244;1311;62079;-82
2022/09/28 07:38:06;;;;;;;;;;;;;;;21.33;48.94;99714.02;104264;1311;61888;-83
2022/09/28 07:43:19;;;;;;;;;;;;;;;21.36;49.09;99714.14;104447;1308;72844;-83
2022/09/28 07:45:50;;;;;;;;;;;;;;;21.36;49.07;99720.94;104297;1310;76636;-84
2022/09/28 07:48:17;;;;;;;;;;;;;;;21.37;49.20;99726.23;104378;1310;62025;-84
2022/09/28 07:50:50;;;;;;;;;;;;;;;21.38;49.07;99736.19;104549;1310;62096;-83
2022/09/28 07:53:16;;;;;;;;;;;;;;;21.39;48.93;99737.85;104260;1309;72644;-82
2022/09/28 07:55:49;;;;;;;;;;;;;;;21.40;49.03;99736.15;104256;1311;61967;-83
2022/09/28 07:58:14;;;;;;;;;;;;;;;21.39;49.09;99736.02;104306;1309;61997;-83
2022/09/28 08:00:40;;;;;;;;;;;;;;;21.39;49.01;99736.91;104262;1309;62180;-83
2022/09/28 08:03:09;;;;;;;;;;;;;;;21.37;49.17;99738.52;104200;1311;62066;-83
2022/09/28 08:05:34;;;;;;;;;;;;;;;21.37;49.31;99736.40;104213;1310;75577;-85
2022/09/28 08:08:01;;;;;;;;;;;;;;;21.37;49.44;99737.69;104222;1309;62139;-83
2022/09/28 08:10:27;;;;;;;;;;;;;;;21.36;49.33;99738.13;104249;1311;62238;-83
2022/09/28 08:12:53;;;;;;;;;;;;;;;21.34;49.39;99739.70;104230;1309;59980;-82
2022/09/28 08:15:20;;;;;;;;;;;;;;;21.31;49.45;99735.13;104204;1309;62110;-82
2022/09/28 08:17:46;;;;;;;;;;;;;;;21.32;49.72;99732.06;104667;1310;62145;-82
2022/09/28 08:23:01;;;;;;;;;;;;;;;21.33;49.81;99734.58;104345;1308;72840;-82
2022/09/28 08:25:26;;;;;;;;;;;;;;;21.33;49.86;99735.83;104427;1307;76796;-81
2022/09/28 08:27:53;;;;;;;;;;;;;;;21.32;49.76;99737.88;104424;1306;62142;-82
2022/09/28 08:30:18;;;;;;;;;;;;;;;21.31;49.64;99737.35;104528;1308;62097;-84
2022/09/28 08:32:50;;;;;;;;;;;;;;;21.29;49.81;99738.75;104299;1309;62089;-82
2022/09/28 08:35:15;;;;;;;;;;;;;;;21.28;49.92;99733.86;104233;1308;76744;-85
2022/09/28 08:37:41;;;;;;;;;;;;;;;21.28;49.90;99734.33;104491;1308;62066;-83
2022/09/28 08:40:12;;;;;;;;;;;;;;;21.29;49.69;99734.80;104259;1308;62103;-83
2022/09/28 08:42:41;;;;;;;;;;;;;;;21.27;49.79;99731.01;104248;1309;72749;-87
2022/09/28 08:45:08;;;;;;;;;;;;;;;21.26;49.86;99731.63;104393;1309;75464;-83
2022/09/28 08:50:21;;;;;;;;;;;;;;;21.31;49.79;99735.20;104448;1309;61921;-83
2022/09/28 08:52:50;;;;;;;;;;;;;;;21.32;49.78;99738.98;104437;1308;72851;-83
2022/09/28 08:55:15;;;;;;;;;;;;;;;21.32;49.84;99734.50;104310;1308;75726;-83
2022/09/28 08:57:46;;;;;;;;;;;;;;;21.33;49.70;99734.41;104399;1308;62102;-83
2022/09/28 09:00:19;;;;;;;;;;;;;;;21.34;49.87;99731.84;104331;1308;60309;-84
2022/09/28 09:02:45;;;;;;;;;;;;;;;21.37;50.03;99727.82;104312;1309;73807;-85
2022/09/28 09:05:13;;;;;;;;;;;;;;;21.43;50.32;99721.36;104326;1308;62084;-85
2022/09/28 09:07:43;;;;;;;;;;;;;;;21.48;50.40;99716.84;104213;1308;61327;-85
2022/09/28 09:10:08;;;;;;;;;;;;;;;21.51;50.62;99719.77;103936;1308;61906;-82
2022/09/28 09:13:03;;;;;;;;;;;;;;;21.52;50.54;99713.40;104296;1308;62217;-82
2022/09/28 09:15:47;;;;;;;;;;;;;;;21.53;50.55;99716.77;103834;1310;76246;-84
2022/09/28 09:18:21;;;;;;;;;;;;;;;21.53;50.64;99715.66;104462;1307;60220;-82
2022/09/28 09:21:05;;;;;;;;;;;;;;;21.54;50.66;99710.36;104462;1307;61971;-83
2022/09/28 09:23:40;;;;;;;;;;;;;;;21.55;50.74;99708.70;104361;1307;73114;-83
2022/09/28 09:26:11;;;;;;;;;;;;;;;21.56;50.75;99706.44;104332;1309;75452;-83
2022/09/28 09:28:56;;;;;;;;;;;;;;;21.57;50.68;99706.55;104390;1309;62192;-83
2022/09/28 09:31:54;;;;;;;;;;;;;;;21.56;50.72;99706.08;104297;1309;62378;-84
2022/09/28 09:34:31;;;;;;;;;;;;;;;21.57;50.81;99706.88;104073;1309;72696;-85
2022/09/28 09:37:12;;;;;;;;;;;;;;;21.59;50.70;99705.64;104527;1308;75504;-84
2022/09/28 09:39:56;;;;;;;;;;;;;;;21.61;50.76;99708.16;104420;1307;60385;-85
2022/09/28 09:42:40;;;;;;;;;;;;;;;21.63;50.77;99710.34;104287;1310;62335;-83
2022/09/28 09:45:05;;;;;;;;;;;;;;;21.63;50.66;99709.20;104408;1307;73197;-83
2022/09/28 09:47:32;;;;;;;;;;;;;;;21.64;50.75;99703.65;104373;1308;62142;-83
2022/09/28 09:50:30;;;;;;;;;;;;;;;21.65;50.73;99708.73;104377;1307;62219;-84
2022/09/28 09:52:59;;;;;;;;;;;;;;;21.66;50.71;99706.34;104042;1308;62120;-84
2022/09/28 09:55:45;;;;;;;;;;;;;;;21.66;50.60;99702.56;104261;1308;73959;-85
2022/09/28 09:58:11;;;;;;;;;;;;;;;21.66;50.63;99696.61;104148;1310;74569;-84
2022/09/28 10:00:47;;;;;;;;;;;;;;;21.65;50.67;99697.58;104308;1309;62190;-83
2022/09/28 10:03:16;;;;;;;;;;;;;;;21.67;50.69;99697.59;104171;1309;246866;-85
2022/09/28 10:05:41;;;;;;;;;;;;;;;21.68;50.61;99704.34;104267;1308;74073;-83
2022/09/28 10:08:07;;;;;;;;;;;;;;;21.70;50.64;99699.44;104354;1308;62287;-84
2022/09/28 10:10:48;;;;;;;;;;;;;;;21.74;50.57;99702.69;104393;1308;62093;-87
2022/09/28 10:13:14;;;;;;;;;;;;;;;21.75;50.64;99698.99;104383;1308;60425;-82
2022/09/28 10:15:40;;;;;;;;;;;;;;;21.75;50.57;99697.55;103508;1308;62059;-82
2022/09/28 10:18:09;;;;;;;;;;;;;;;21.76;50.54;99697.48;103554;1309;60079;-84
2022/09/28 10:20:39;;;;;;;;;;;;;;;21.77;50.55;99697.58;103690;1309;62005;-82
2022/09/28 10:23:06;;;;;;;;;;;;;;;21.78;50.51;99698.71;103741;1309;61989;-81
2022/09/28 10:25:32;;;;;;;;;;;;;;;21.79;50.47;99700.09;105148;1308;60339;-82
2022/09/28 10:27:58;;;;;;;;;;;;;;;21.80;50.41;99696.80;105183;1308;60469;-83
2022/09/28 10:30:24;;;;;;;;;;;;;;;21.81;50.38;99695.42;105180;1309;60482;-83
2022/09/28 10:32:51;;;;;;;;;;;;;;;21.83;50.36;99696.33;104037;1308;62342;-83
2022/09/28 10:35:17;;;;;;;;;;;;;;;21.85;50.50;99694.58;103873;1308;62137;-83
2022/09/28 10:38:02;;;;;;;;;;;;;;;21.86;50.30;99700.11;103647;1309;62299;-83
2022/09/28 10:40:46;;;;;;;;;;;;;;;21.89;50.41;99703.23;104545;1308;62114;-83
2022/09/28 10:43:34;;;;;;;;;;;;;;;21.90;50.22;99697.98;103686;1311;62028;-83
2022/09/28 10:46:03;;;;;;;;;;;;;;;21.91;50.28;99702.70;104022;1308;73686;-82
2022/09/28 10:48:29;;;;;;;;;;;;;;;21.92;50.10;99708.95;103796;1308;76432;-84
2022/09/28 10:51:05;;;;;;;;;;;;;;;21.92;50.06;99711.95;103695;1308;64281;-83
2022/09/28 10:53:30;;;;;;;;;;;;;;;21.92;49.95;99707.45;103718;1309;60517;-82
2022/09/28 10:55:58;;;;;;;;;;;;;;;21.93;49.80;99704.36;103677;1311;62104;-82
2022/09/28 10:58:39;;;;;;;;;;;;;;;21.93;49.60;99706.17;104030;1307;62091;-83
2022/09/28 11:01:08;;;;;;;;;;;;;;;21.92;49.62;99711.34;103499;1309;60450;-83
2022/09/28 11:03:34;;;;;;;;;;;;;;;21.94;49.49;99717.14;104027;1309;61836;-83
2022/09/28 11:06:04;;;;;;;;;;;;;;;21.95;49.46;99714.00;103899;1308;72938;-83
2022/09/28 11:08:30;;;;;;;;;;;;;;;21.96;49.36;99709.11;103888;1309;75797;-83
2022/09/28 11:11:00;;;;;;;;;;;;;;;21.96;49.23;99713.22;104452;1308;62182;-83
2022/09/28 11:13:26;;;;;;;;;;;;;;;21.96;49.13;99708.54;104366;1309;62112;-81
2022/09/28 11:15:52;;;;;;;;;;;;;;;21.96;48.96;99706.80;104417;1308;62108;-83
2022/09/28 11:18:25;;;;;;;;;;;;;;;21.96;48.91;99714.86;104314;1309;62070;-84
2022/09/28 11:20:50;;;;;;;;;;;;;;;21.96;48.72;99708.55;105200;1308;60218;-83
2022/09/28 11:23:34;;;;;;;;;;;;;;;21.97;48.79;99702.94;105164;1308;60205;-84
2022/09/28 11:26:04;;;;;;;;;;;;;;;21.98;48.69;99707.11;105118;1311;74125;-84
2022/09/28 11:28:32;;;;;;;;;;;;;;;21.99;48.57;99703.97;105206;1310;74996;-84
2022/09/28 11:30:58;;;;;;;;;;;;;;;22.00;48.74;99696.36;104561;1311;62043;-83
2022/09/28 11:33:26;;;;;;;;;;;;;;;22.01;48.52;99693.58;104780;1309;60299;-83
2022/09/28 11:35:51;;;;;;;;;;;;;;;22.02;48.55;99694.58;104292;1309;72399;-83
2022/09/28 11:38:26;;;;;;;;;;;;;;;22.03;48.50;99690.16;104303;1310;62114;-84
2022/09/28 11:40:57;;;;;;;;;;;;;;;22.04;48.26;99694.02;104284;1311;62107;-83
2022/09/28 11:43:23;;;;;;;;;;;;;;;22.04;48.09;99689.54;104313;1311;62106;-84
2022/09/28 11:45:48;;;;;;;;;;;;;;;22.04;48.10;99691.00;104255;1311;61272;-85
2022/09/28 11:48:15;;;;;;;;;;;;;;;22.04;47.91;99691.73;104320;1311;61447;-85
2022/09/28 11:50:46;;;;;;;;;;;;;;;22.04;47.89;99682.69;104226;1311;62115;-83
2022/09/28 11:53:17;;;;;;;;;;;;;;;22.05;47.83;99684.08;104448;1311;61979;-83
2022/09/28 11:55:45;;;;;;;;;;;;;;;22.05;47.83;99676.58;104212;1310;74005;-83
2022/09/28 11:58:16;;;;;;;;;;;;;;;22.06;47.70;99680.42;104180;1311;77096;-82
2022/09/28 12:00:44;;;;;;;;;;;;;;;22.07;47.58;99683.16;104236;1310;62117;-83
2022/09/28 12:03:13;;;;;;;;;;;;;;;22.07;47.60;99677.63;104411;1310;61999;-84
2022/09/28 12:05:55;;;;;;;;;;;;;;;22.06;47.59;99675.02;104562;1310;73875;-83
2022/09/28 12:08:24;;;;;;;;;;;;;;;22.06;47.57;99680.23;104313;1310;77045;-83
2022/09/28 12:10:54;;;;;;;;;;;;;;;22.06;47.45;99680.96;104452;1310;59767;-83
2022/09/28 12:13:25;;;;;;;;;;;;;;;22.05;47.41;99686.79;104410;1308;61999;-82
2022/09/28 12:15:53;;;;;;;;;;;;;;;22.04;47.23;99684.33;104418;1311;73364;-84
2022/09/28 12:18:39;;;;;;;;;;;;;;;22.04;47.15;99680.95;104366;1311;76567;-83
2022/09/28 12:21:13;;;;;;;;;;;;;;;22.04;46.98;99679.52;104346;1311;62129;-86
2022/09/28 12:23:39;;;;;;;;;;;;;;;22.03;46.81;99679.23;104257;1311;61998;-83
2022/09/28 12:26:08;;;;;;;;;;;;;;;22.02;46.81;99677.38;104394;1308;62316;-83
2022/09/28 12:28:35;;;;;;;;;;;;;;;22.02;46.59;99676.66;104372;1309;76718;-83
2022/09/28 12:31:07;;;;;;;;;;;;;;;22.01;46.42;99671.73;104309;1308;61925;-84
2022/09/28 12:33:32;;;;;;;;;;;;;;;22.01;46.40;99667.30;104397;1309;62217;-84
2022/09/28 12:36:01;;;;;;;;;;;;;;;21.99;46.34;99670.98;104272;1309;62183;-84
2022/09/28 12:38:45;;;;;;;;;;;;;;;21.99;46.32;99676.73;104379;1309;75771;-84
2022/09/28 12:41:20;;;;;;;;;;;;;;;21.98;46.25;99673.80;104418;1309;62003;-85
2022/09/28 12:43:53;;;;;;;;;;;;;;;21.97;46.23;99676.02;104405;1308;62163;-83
2022/09/28 12:46:37;;;;;;;;;;;;;;;21.97;46.14;99675.14;104487;1308;73812;-85
2022/09/28 12:49:28;;;;;;;;;;;;;;;21.97;46.05;99675.14;104401;1308;76205;-84
2022/09/28 12:51:54;;;;;;;;;;;;;;;21.97;46.01;99671.58;104419;1308;61992;-84
2022/09/28 12:54:37;;;;;;;;;;;;;;;21.97;46.05;99669.79;104427;1309;62101;-85
2022/09/28 12:57:24;;;;;;;;;;;;;;;21.96;45.91;99670.02;104584;1308;72730;-84
2022/09/28 13:00:00;;;;;;;;;;;;;;;21.96;45.92;99672.54;104439;1308;77022;-84